Poland, Ohio
Current Conditions -  °F | °C
As of 1:51 PM on Monday 20 Oct 2014 (Local Time) from KYNG Reporting Station
Overcast Overcast  
Wind Chill: 54°   Ceiling: 8500
Heat Index: 54°   Visibility: 10mi
Dew Point: 45°   Wind: 9mph
Humidity: 72%   Direction: 210°SSW
Pressure: 29.88"   Gusts: NA
Location:  41.0005°N, 80.596°W
Report Text: KYNG 201751Z 21008KT 10SM FEW030 SCT065 OVC085 12/07 A2988 RMK AO2 RAB20E42 SLP122 P0000 60000 T01220072 10139 20072 56019
Loading
Personal Weather Stations






























Interactive Weather Map
Tropical Storm Tracking
New forecast layout! Learn more

10-Day Weather Forecast

Advertisements
Track Severe Weather on mobile